ADDS METAR Data INFO
IDs: Format: Raw Decoded Include TAF

Data at: 2300 UTC 21 Feb 2018

KRFI 212255Z AUTO 35006KT 7SM RA OVC006 13/13 A3017 RMK AO2 LTG DSNT SW T01330130
KRFI 212235Z AUTO 33006KT 5SM +RA OVC006 14/13 A3016 RMK AO2 LTG DSNT S AND W T01350132
KRFI 212155Z AUTO 35007KT 3SM +RA BKN008 OVC013 14/13 A3014 RMK AO2 LTG DSNT E S AND W T01360130
KRFI 212135Z AUTO 36006KT 10SM RA OVC008 14/13 A3014 RMK AO2 LTG DSNT E THRU W T01380130
KRFI 212115Z AUTO 04006G15KT 10SM OVC008 14/13 A3012 RMK AO2 LTG DSNT E AND SE T01380130
KRFI 212035Z AUTO 06006KT 10SM -RA OVC008 14/13 A3010 RMK AO2 LTG DSNT SE T01370130
KRFI 212015Z AUTO 06009G18KT 7SM -RA OVC008 14/13 A3011 RMK AO2 LTG DSNT S T01360130
KRFI 211955Z AUTO 06012G20KT 030V090 7SM RA OVC010 14/13 A3013 RMK AO2 LTG DSNT SE AND S T01360130
KRFI 211935Z AUTO 06009G16KT 10SM OVC010 14/13 A3013 RMK AO2 LTG DSNT SE THRU W T01370130
KRFI 211915Z AUTO 05010G16KT 10SM -RA BKN008 OVC012 13/13 A3014 RMK AO2 LTG DSNT E AND S T01320127
KRFI 211855Z AUTO 04007G15KT 10SM BKN006 OVC010 13/12 A3014 RMK AO2 LTG DSNT SE AND S T01250121
KRFI 211835Z AUTO 04007KT 10SM -RA OVC004 12/11 A3016 RMK AO2 LTG DSNT E THRU S T01160114
KRFI 211815Z AUTO 06006KT 10SM -RA BKN004 BKN015 OVC050 11/10 A3018 RMK AO2 LTG DSNT SE T01050103
KRFI 211755Z AUTO 01005KT 10SM -RA SCT004 BKN015 OVC055 10/09 A3020 RMK AO2 LTG DSNT SE AND S T00950091 10113 20088
KRFI 211735Z AUTO 03010G16KT 10SM -RA BKN004 BKN016 OVC055 09/09 A3021 RMK AO2 LTG DSNT SE T00880085
KRFI 211715Z AUTO 35008KT 5SM +RA OVC004 09/09 A3022 RMK AO2 LTG DSNT E THRU S T00920089
KRFI 211655Z AUTO 35007KT 7SM RA OVC004 10/09 A3022 RMK AO2 LTG DSNT E THRU SW T00970094
KRFI 211615Z AUTO 36007KT 7SM +TSRA OVC004 11/11 A3024 RMK AO2 LTG DSNT SE THRU SW T01120110
KRFI 211455Z AUTO 34005KT 4SM +RA OVC005 10/09 A3020 RMK AO2 LTG DSNT SW T00970094
KRFI 211415Z AUTO 10SM RA BKN005 OVC019 09/09 A3019 RMK AO2 LTG DSNT SE THRU SW T00930089
KRFI 211355Z AUTO 10SM -RA SCT005 BKN019 OVC070 09/09 A3018 RMK AO2 T00900087
KRFI 211335Z AUTO 33006KT 4SM RA BKN005 BKN017 OVC024 09/09 A3020 RMK AO2 LTG DSNT S T00900085
KRFI 211315Z AUTO 03008G17KT 10SM -VCTSDZ SCT005 BKN021 OVC026 09/09 A3019 RMK AO2 LTG DSNT E THRU S T00940087
KRFI 211255Z AUTO 02010G15KT 10SM -RA BKN005 OVC021 09/09 A3017 RMK AO2 LTG DSNT E AND S T00940089
KRFI 210715Z AUTO 19005KT 10SM OVC014 22/20 A3007 RMK AO2 LTG DSNT W AND NW T02160197
KRFI 210655Z AUTO 20003KT 10SM OVC014 22/20 A3007 RMK AO2 LTG DSNT W T02160197
KRFI 210615Z AUTO 18007KT 10SM OVC012 22/20 A3006 RMK AO2 LTG DSNT W T02150198
KRFI 210555Z AUTO 16008KT 10SM OVC012 22/20 A3004 RMK AO2 LTG DSNT W T02150197 10216 20205 402500202
KRFI 201515Z AUTO 15010G16KT 10SM OVC016 21/18 A3004 RMK AO2 T02120179
KRFI 201435Z AUTO 15008KT 10SM BKN018 BKN026 21/18 A3004 RMK AO2 T02060175
KRFI 201415Z AUTO 16007KT 10SM OVC020 21/17 A3004 RMK AO2 T02050172
KRFI 201355Z AUTO 16008KT 10SM BKN020 BKN025 BKN032 21/17 A3004 RMK AO2 T02070172
KRFI 201335Z AUTO 18007KT 10SM OVC020 20/17 A3004 RMK AO2 T02020171
KRFI 201315Z AUTO 16007KT 10SM BKN020 OVC100 20/17 A3003 RMK AO2 T02020170
KRFI 201235Z AUTO 17007KT 10SM BKN022 OVC095 21/17 A3003 RMK AO2 T02050168
KRFI 201215Z AUTO 17009G16KT 10SM SCT022 OVC095 21/17 A3001 RMK AO2 T02060167
KRFI 201155Z AUTO 16013G19KT 10SM BKN022 BKN029 BKN095 21/17 A2999 RMK AO2 70019 T02070170 10217 20207
KRFI 201135Z AUTO 16010G18KT 10SM BKN024 BKN031 21/17 A2998 RMK AO2 T02080173
KRFI 201115Z AUTO 16010G15KT 10SM BKN022 OVC029 21/18 A2998 RMK AO2 T02100176